sensor_id;sensor_type;location;lat;lon;timestamp;P1;durP1;ratioP1;P2;durP2;ratioP2
75090;SDS011;63674;48.048;8.306;2023-08-06T00:00:44;6.78;;;2.30;;
75090;SDS011;63674;48.048;8.306;2023-08-06T00:03:12;10.00;;;2.42;;
75090;SDS011;63674;48.048;8.306;2023-08-06T00:05:41;6.82;;;2.10;;
75090;SDS011;63674;48.048;8.306;2023-08-06T00:08:10;8.53;;;2.20;;
75090;SDS011;63674;48.048;8.306;2023-08-06T00:10:39;7.45;;;2.25;;
75090;SDS011;63674;48.048;8.306;2023-08-06T00:13:09;8.85;;;2.15;;
75090;SDS011;63674;48.048;8.306;2023-08-06T00:15:38;5.15;;;2.28;;
75090;SDS011;63674;48.048;8.306;2023-08-06T00:18:06;7.75;;;2.40;;
75090;SDS011;63674;48.048;8.306;2023-08-06T00:20:35;7.20;;;1.80;;
75090;SDS011;63674;48.048;8.306;2023-08-06T00:23:06;7.00;;;1.90;;
75090;SDS011;63674;48.048;8.306;2023-08-06T00:25:36;7.40;;;2.13;;
75090;SDS011;63674;48.048;8.306;2023-08-06T00:28:05;7.40;;;2.20;;
75090;SDS011;63674;48.048;8.306;2023-08-06T00:30:35;5.90;;;2.00;;
75090;SDS011;63674;48.048;8.306;2023-08-06T00:33:03;5.57;;;1.80;;
75090;SDS011;63674;48.048;8.306;2023-08-06T00:35:32;4.90;;;1.73;;
75090;SDS011;63674;48.048;8.306;2023-08-06T00:38:00;5.38;;;1.20;;
75090;SDS011;63674;48.048;8.306;2023-08-06T00:40:29;4.55;;;1.25;;
75090;SDS011;63674;48.048;8.306;2023-08-06T00:42:58;5.82;;;1.40;;
75090;SDS011;63674;48.048;8.306;2023-08-06T00:45:27;5.83;;;1.30;;
75090;SDS011;63674;48.048;8.306;2023-08-06T00:47:58;3.60;;;0.90;;
75090;SDS011;63674;48.048;8.306;2023-08-06T00:50:26;5.43;;;1.70;;
75090;SDS011;63674;48.048;8.306;2023-08-06T00:52:55;5.13;;;1.40;;
75090;SDS011;63674;48.048;8.306;2023-08-06T00:55:23;4.80;;;1.27;;
75090;SDS011;63674;48.048;8.306;2023-08-06T00:57:52;4.40;;;1.27;;
75090;SDS011;63674;48.048;8.306;2023-08-06T01:00:23;5.45;;;1.48;;
75090;SDS011;63674;48.048;8.306;2023-08-06T01:02:52;5.00;;;1.40;;
75090;SDS011;63674;48.048;8.306;2023-08-06T01:05:23;4.25;;;1.30;;
75090;SDS011;63674;48.048;8.306;2023-08-06T01:07:55;4.30;;;1.30;;
75090;SDS011;63674;48.048;8.306;2023-08-06T01:10:45;5.07;;;1.40;;
75090;SDS011;63674;48.048;8.306;2023-08-06T01:13:27;6.63;;;1.40;;
75090;SDS011;63674;48.048;8.306;2023-08-06T01:16:01;5.55;;;1.40;;
75090;SDS011;63674;48.048;8.306;2023-08-06T01:18:32;4.63;;;1.20;;
75090;SDS011;63674;48.048;8.306;2023-08-06T01:21:03;4.70;;;1.17;;
75090;SDS011;63674;48.048;8.306;2023-08-06T01:23:31;6.57;;;1.43;;
75090;SDS011;63674;48.048;8.306;2023-08-06T01:26:02;5.70;;;1.20;;
75090;SDS011;63674;48.048;8.306;2023-08-06T01:28:40;4.70;;;1.65;;
75090;SDS011;63674;48.048;8.306;2023-08-06T01:31:18;6.60;;;1.38;;
75090;SDS011;63674;48.048;8.306;2023-08-06T01:33:52;4.50;;;1.45;;
75090;SDS011;63674;48.048;8.306;2023-08-06T01:36:23;5.37;;;1.30;;
75090;SDS011;63674;48.048;8.306;2023-08-06T01:38:52;5.18;;;1.15;;
75090;SDS011;63674;48.048;8.306;2023-08-06T01:41:21;4.80;;;1.38;;
75090;SDS011;63674;48.048;8.306;2023-08-06T01:43:50;4.45;;;1.27;;
75090;SDS011;63674;48.048;8.306;2023-08-06T01:46:18;5.10;;;1.08;;
75090;SDS011;63674;48.048;8.306;2023-08-06T01:48:47;4.97;;;1.30;;
75090;SDS011;63674;48.048;8.306;2023-08-06T01:51:16;4.50;;;1.20;;
75090;SDS011;63674;48.048;8.306;2023-08-06T01:53:46;6.70;;;1.38;;
75090;SDS011;63674;48.048;8.306;2023-08-06T01:56:14;8.32;;;1.50;;
75090;SDS011;63674;48.048;8.306;2023-08-06T01:58:43;6.13;;;1.30;;
75090;SDS011;63674;48.048;8.306;2023-08-06T02:01:12;7.93;;;1.37;;
75090;SDS011;63674;48.048;8.306;2023-08-06T02:03:40;7.32;;;1.60;;
75090;SDS011;63674;48.048;8.306;2023-08-06T02:06:09;5.15;;;1.40;;
75090;SDS011;63674;48.048;8.306;2023-08-06T02:08:37;5.78;;;1.30;;
75090;SDS011;63674;48.048;8.306;2023-08-06T02:11:07;5.10;;;1.50;;
75090;SDS011;63674;48.048;8.306;2023-08-06T02:13:36;5.10;;;1.37;;
75090;SDS011;63674;48.048;8.306;2023-08-06T02:16:06;4.18;;;1.02;;
75090;SDS011;63674;48.048;8.306;2023-08-06T02:18:36;7.07;;;1.20;;
75090;SDS011;63674;48.048;8.306;2023-08-06T02:21:04;8.32;;;1.40;;
75090;SDS011;63674;48.048;8.306;2023-08-06T02:23:33;5.35;;;1.08;;
75090;SDS011;63674;48.048;8.306;2023-08-06T02:26:02;9.80;;;1.40;;
75090;SDS011;63674;48.048;8.306;2023-08-06T02:28:33;6.05;;;1.20;;
75090;SDS011;63674;48.048;8.306;2023-08-06T02:31:02;5.00;;;1.13;;
75090;SDS011;63674;48.048;8.306;2023-08-06T02:33:30;5.53;;;1.27;;
75090;SDS011;63674;48.048;8.306;2023-08-06T02:35:59;5.90;;;1.20;;
75090;SDS011;63674;48.048;8.306;2023-08-06T02:38:30;7.03;;;1.10;;
75090;SDS011;63674;48.048;8.306;2023-08-06T02:40:59;6.35;;;1.27;;
75090;SDS011;63674;48.048;8.306;2023-08-06T02:43:31;8.18;;;1.40;;
75090;SDS011;63674;48.048;8.306;2023-08-06T02:46:01;7.63;;;1.40;;
75090;SDS011;63674;48.048;8.306;2023-08-06T02:48:30;6.20;;;1.25;;
75090;SDS011;63674;48.048;8.306;2023-08-06T02:50:58;4.70;;;1.00;;
75090;SDS011;63674;48.048;8.306;2023-08-06T02:53:27;6.55;;;1.00;;
75090;SDS011;63674;48.048;8.306;2023-08-06T02:55:56;6.30;;;1.23;;
75090;SDS011;63674;48.048;8.306;2023-08-06T02:58:25;5.13;;;0.80;;
75090;SDS011;63674;48.048;8.306;2023-08-06T03:01:02;9.63;;;0.98;;
75090;SDS011;63674;48.048;8.306;2023-08-06T03:03:32;5.37;;;0.80;;
75090;SDS011;63674;48.048;8.306;2023-08-06T03:06:01;4.32;;;0.60;;
75090;SDS011;63674;48.048;8.306;2023-08-06T03:08:30;4.53;;;0.70;;
75090;SDS011;63674;48.048;8.306;2023-08-06T03:10:58;4.38;;;0.70;;
75090;SDS011;63674;48.048;8.306;2023-08-06T03:13:27;5.53;;;0.80;;
75090;SDS011;63674;48.048;8.306;2023-08-06T03:15:56;3.13;;;0.50;;
75090;SDS011;63674;48.048;8.306;2023-08-06T03:18:27;2.85;;;0.40;;
75090;SDS011;63674;48.048;8.306;2023-08-06T03:20:56;3.75;;;0.47;;
75090;SDS011;63674;48.048;8.306;2023-08-06T03:23:25;2.60;;;0.30;;
75090;SDS011;63674;48.048;8.306;2023-08-06T03:25:53;2.40;;;0.40;;
75090;SDS011;63674;48.048;8.306;2023-08-06T03:28:22;3.03;;;0.47;;
75090;SDS011;63674;48.048;8.306;2023-08-06T03:30:58;2.83;;;0.30;;
75090;SDS011;63674;48.048;8.306;2023-08-06T03:33:29;4.20;;;0.40;;
75090;SDS011;63674;48.048;8.306;2023-08-06T03:35:58;3.35;;;0.40;;
75090;SDS011;63674;48.048;8.306;2023-08-06T03:38:27;3.45;;;0.50;;
75090;SDS011;63674;48.048;8.306;2023-08-06T03:40:55;4.73;;;0.40;;
75090;SDS011;63674;48.048;8.306;2023-08-06T03:43:24;3.03;;;0.50;;
75090;SDS011;63674;48.048;8.306;2023-08-06T03:45:52;2.72;;;0.50;;
75090;SDS011;63674;48.048;8.306;2023-08-06T03:48:21;2.97;;;0.50;;
75090;SDS011;63674;48.048;8.306;2023-08-06T03:50:51;3.85;;;0.73;;
75090;SDS011;63674;48.048;8.306;2023-08-06T03:53:19;3.47;;;0.40;;
75090;SDS011;63674;48.048;8.306;2023-08-06T03:55:48;4.35;;;0.55;;
75090;SDS011;63674;48.048;8.306;2023-08-06T03:58:17;5.22;;;0.65;;
75090;SDS011;63674;48.048;8.306;2023-08-06T04:00:45;2.97;;;0.50;;
75090;SDS011;63674;48.048;8.306;2023-08-06T04:03:14;2.70;;;0.50;;
75090;SDS011;63674;48.048;8.306;2023-08-06T04:05:43;3.30;;;0.50;;
75090;SDS011;63674;48.048;8.306;2023-08-06T04:08:13;3.88;;;0.40;;
75090;SDS011;63674;48.048;8.306;2023-08-06T04:10:42;3.03;;;0.40;;
75090;SDS011;63674;48.048;8.306;2023-08-06T04:13:10;2.95;;;0.40;;
75090;SDS011;63674;48.048;8.306;2023-08-06T04:15:39;4.00;;;0.50;;
75090;SDS011;63674;48.048;8.306;2023-08-06T04:18:07;3.97;;;0.67;;
75090;SDS011;63674;48.048;8.306;2023-08-06T04:20:41;2.95;;;0.50;;
75090;SDS011;63674;48.048;8.306;2023-08-06T04:23:12;3.25;;;0.50;;
75090;SDS011;63674;48.048;8.306;2023-08-06T04:25:42;4.05;;;0.57;;
75090;SDS011;63674;48.048;8.306;2023-08-06T04:28:10;4.05;;;0.55;;
75090;SDS011;63674;48.048;8.306;2023-08-06T04:30:39;3.27;;;0.57;;
75090;SDS011;63674;48.048;8.306;2023-08-06T04:33:07;3.42;;;0.50;;
75090;SDS011;63674;48.048;8.306;2023-08-06T04:35:36;4.05;;;0.50;;
75090;SDS011;63674;48.048;8.306;2023-08-06T04:38:04;4.30;;;0.60;;
75090;SDS011;63674;48.048;8.306;2023-08-06T04:40:35;5.00;;;0.60;;
75090;SDS011;63674;48.048;8.306;2023-08-06T04:43:04;3.20;;;0.50;;
75090;SDS011;63674;48.048;8.306;2023-08-06T04:45:32;3.50;;;0.68;;
75090;SDS011;63674;48.048;8.306;2023-08-06T04:48:01;3.65;;;0.50;;
75090;SDS011;63674;48.048;8.306;2023-08-06T04:50:30;2.90;;;0.40;;
75090;SDS011;63674;48.048;8.306;2023-08-06T04:52:58;2.88;;;0.40;;
75090;SDS011;63674;48.048;8.306;2023-08-06T04:55:27;3.00;;;0.50;;
75090;SDS011;63674;48.048;8.306;2023-08-06T04:57:57;3.88;;;0.50;;
75090;SDS011;63674;48.048;8.306;2023-08-06T05:00:25;3.00;;;0.43;;
75090;SDS011;63674;48.048;8.306;2023-08-06T05:02:54;3.10;;;0.50;;
75090;SDS011;63674;48.048;8.306;2023-08-06T05:05:23;3.00;;;0.50;;
75090;SDS011;63674;48.048;8.306;2023-08-06T05:07:53;5.20;;;0.50;;
75090;SDS011;63674;48.048;8.306;2023-08-06T05:10:24;3.55;;;0.47;;
75090;SDS011;63674;48.048;8.306;2023-08-06T05:12:53;5.25;;;0.40;;
75090;SDS011;63674;48.048;8.306;2023-08-06T05:15:23;2.75;;;0.50;;
75090;SDS011;63674;48.048;8.306;2023-08-06T05:17:53;3.00;;;0.40;;
75090;SDS011;63674;48.048;8.306;2023-08-06T05:20:21;3.47;;;0.30;;
75090;SDS011;63674;48.048;8.306;2023-08-06T05:22:50;2.55;;;0.38;;
75090;SDS011;63674;48.048;8.306;2023-08-06T05:25:20;3.58;;;0.40;;
75090;SDS011;63674;48.048;8.306;2023-08-06T05:27:48;2.97;;;0.30;;
75090;SDS011;63674;48.048;8.306;2023-08-06T05:30:17;2.25;;;0.30;;
75090;SDS011;63674;48.048;8.306;2023-08-06T05:32:47;2.30;;;0.40;;
75090;SDS011;63674;48.048;8.306;2023-08-06T05:35:15;2.38;;;0.30;;
75090;SDS011;63674;48.048;8.306;2023-08-06T05:37:44;2.80;;;0.25;;
75090;SDS011;63674;48.048;8.306;2023-08-06T05:40:13;2.50;;;0.30;;
75090;SDS011;63674;48.048;8.306;2023-08-06T05:42:42;4.60;;;0.40;;
75090;SDS011;63674;48.048;8.306;2023-08-06T05:45:11;3.37;;;0.40;;
75090;SDS011;63674;48.048;8.306;2023-08-06T05:47:39;2.50;;;0.40;;
75090;SDS011;63674;48.048;8.306;2023-08-06T05:50:09;1.90;;;0.30;;
75090;SDS011;63674;48.048;8.306;2023-08-06T05:52:38;3.38;;;0.30;;
75090;SDS011;63674;48.048;8.306;2023-08-06T05:55:07;2.08;;;0.30;;
75090;SDS011;63674;48.048;8.306;2023-08-06T05:57:36;2.30;;;0.30;;
75090;SDS011;63674;48.048;8.306;2023-08-06T06:00:05;1.92;;;0.30;;
75090;SDS011;63674;48.048;8.306;2023-08-06T06:02:35;1.88;;;0.35;;
75090;SDS011;63674;48.048;8.306;2023-08-06T06:05:04;2.55;;;0.40;;
75090;SDS011;63674;48.048;8.306;2023-08-06T06:07:34;2.35;;;0.30;;
75090;SDS011;63674;48.048;8.306;2023-08-06T06:10:03;2.10;;;0.40;;
75090;SDS011;63674;48.048;8.306;2023-08-06T06:12:33;2.00;;;0.30;;
75090;SDS011;63674;48.048;8.306;2023-08-06T06:15:01;2.65;;;0.40;;
75090;SDS011;63674;48.048;8.306;2023-08-06T06:17:31;2.78;;;0.40;;
75090;SDS011;63674;48.048;8.306;2023-08-06T06:19:59;2.28;;;0.40;;
75090;SDS011;63674;48.048;8.306;2023-08-06T06:22:30;2.77;;;0.50;;
75090;SDS011;63674;48.048;8.306;2023-08-06T06:25:00;2.03;;;0.38;;
75090;SDS011;63674;48.048;8.306;2023-08-06T06:27:29;2.15;;;0.30;;
75090;SDS011;63674;48.048;8.306;2023-08-06T06:29:57;1.95;;;0.30;;
75090;SDS011;63674;48.048;8.306;2023-08-06T06:32:26;2.42;;;0.40;;
75090;SDS011;63674;48.048;8.306;2023-08-06T06:34:55;2.07;;;0.30;;
75090;SDS011;63674;48.048;8.306;2023-08-06T06:37:23;2.20;;;0.30;;
75090;SDS011;63674;48.048;8.306;2023-08-06T06:39:52;2.42;;;0.40;;
75090;SDS011;63674;48.048;8.306;2023-08-06T06:42:22;2.03;;;0.30;;
75090;SDS011;63674;48.048;8.306;2023-08-06T06:44:51;2.20;;;0.32;;
75090;SDS011;63674;48.048;8.306;2023-08-06T06:47:19;3.03;;;0.47;;
75090;SDS011;63674;48.048;8.306;2023-08-06T06:49:48;4.25;;;0.50;;
75090;SDS011;63674;48.048;8.306;2023-08-06T06:52:16;2.58;;;0.40;;
75090;SDS011;63674;48.048;8.306;2023-08-06T06:54:45;3.83;;;0.50;;
75090;SDS011;63674;48.048;8.306;2023-08-06T06:57:13;2.20;;;0.30;;
75090;SDS011;63674;48.048;8.306;2023-08-06T06:59:43;2.50;;;0.40;;
75090;SDS011;63674;48.048;8.306;2023-08-06T07:02:12;3.55;;;0.40;;
75090;SDS011;63674;48.048;8.306;2023-08-06T07:04:41;3.10;;;0.47;;
75090;SDS011;63674;48.048;8.306;2023-08-06T07:07:09;5.97;;;0.50;;
75090;SDS011;63674;48.048;8.306;2023-08-06T07:09:38;2.00;;;0.30;;
75090;SDS011;63674;48.048;8.306;2023-08-06T07:12:07;2.40;;;0.30;;
75090;SDS011;63674;48.048;8.306;2023-08-06T07:14:35;2.17;;;0.30;;
75090;SDS011;63674;48.048;8.306;2023-08-06T07:17:06;3.15;;;0.40;;
75090;SDS011;63674;48.048;8.306;2023-08-06T07:19:35;2.50;;;0.40;;
75090;SDS011;63674;48.048;8.306;2023-08-06T07:22:04;3.55;;;0.40;;
75090;SDS011;63674;48.048;8.306;2023-08-06T07:24:33;2.83;;;0.40;;
75090;SDS011;63674;48.048;8.306;2023-08-06T07:27:02;2.35;;;0.35;;
75090;SDS011;63674;48.048;8.306;2023-08-06T07:29:32;1.90;;;0.30;;
75090;SDS011;63674;48.048;8.306;2023-08-06T07:32:00;2.60;;;0.38;;
75090;SDS011;63674;48.048;8.306;2023-08-06T07:34:30;2.85;;;0.30;;
75090;SDS011;63674;48.048;8.306;2023-08-06T07:36:59;2.50;;;0.30;;
75090;SDS011;63674;48.048;8.306;2023-08-06T07:39:27;2.65;;;0.43;;
75090;SDS011;63674;48.048;8.306;2023-08-06T07:41:56;2.83;;;0.50;;
75090;SDS011;63674;48.048;8.306;2023-08-06T07:44:25;2.20;;;0.30;;
75090;SDS011;63674;48.048;8.306;2023-08-06T07:46:53;2.40;;;0.30;;
75090;SDS011;63674;48.048;8.306;2023-08-06T07:49:22;3.33;;;0.40;;
75090;SDS011;63674;48.048;8.306;2023-08-06T07:51:52;2.70;;;0.50;;
75090;SDS011;63674;48.048;8.306;2023-08-06T07:54:21;2.70;;;0.50;;
75090;SDS011;63674;48.048;8.306;2023-08-06T07:56:50;3.47;;;0.75;;
75090;SDS011;63674;48.048;8.306;2023-08-06T07:59:19;3.05;;;0.30;;
75090;SDS011;63674;48.048;8.306;2023-08-06T08:01:47;3.07;;;0.40;;
75090;SDS011;63674;48.048;8.306;2023-08-06T08:04:16;2.83;;;0.60;;
75090;SDS011;63674;48.048;8.306;2023-08-06T08:06:48;2.35;;;0.40;;
75090;SDS011;63674;48.048;8.306;2023-08-06T08:09:18;3.17;;;0.50;;
75090;SDS011;63674;48.048;8.306;2023-08-06T08:11:47;2.53;;;0.40;;
75090;SDS011;63674;48.048;8.306;2023-08-06T08:14:17;2.57;;;0.40;;
75090;SDS011;63674;48.048;8.306;2023-08-06T08:16:46;3.10;;;0.60;;
75090;SDS011;63674;48.048;8.306;2023-08-06T08:19:14;3.00;;;0.55;;
75090;SDS011;63674;48.048;8.306;2023-08-06T08:21:43;2.85;;;0.50;;
75090;SDS011;63674;48.048;8.306;2023-08-06T08:24:12;3.58;;;0.60;;
75090;SDS011;63674;48.048;8.306;2023-08-06T08:26:41;2.73;;;0.50;;
75090;SDS011;63674;48.048;8.306;2023-08-06T08:29:10;2.42;;;0.40;;
75090;SDS011;63674;48.048;8.306;2023-08-06T08:31:38;2.85;;;0.40;;
75090;SDS011;63674;48.048;8.306;2023-08-06T08:34:07;2.85;;;0.40;;
75090;SDS011;63674;48.048;8.306;2023-08-06T08:36:36;2.30;;;0.30;;
75090;SDS011;63674;48.048;8.306;2023-08-06T08:39:04;2.10;;;0.30;;
75090;SDS011;63674;48.048;8.306;2023-08-06T08:41:33;2.60;;;0.47;;
75090;SDS011;63674;48.048;8.306;2023-08-06T08:44:08;2.65;;;0.50;;
75090;SDS011;63674;48.048;8.306;2023-08-06T08:46:38;2.45;;;0.40;;
75090;SDS011;63674;48.048;8.306;2023-08-06T08:49:08;2.80;;;0.50;;
75090;SDS011;63674;48.048;8.306;2023-08-06T08:51:38;2.57;;;0.47;;
75090;SDS011;63674;48.048;8.306;2023-08-06T08:54:07;3.80;;;0.30;;
75090;SDS011;63674;48.048;8.306;2023-08-06T08:56:38;2.30;;;0.30;;
75090;SDS011;63674;48.048;8.306;2023-08-06T08:59:07;2.70;;;0.40;;
75090;SDS011;63674;48.048;8.306;2023-08-06T09:01:38;2.97;;;0.40;;
75090;SDS011;63674;48.048;8.306;2023-08-06T09:04:08;3.20;;;0.57;;
75090;SDS011;63674;48.048;8.306;2023-08-06T09:06:38;3.53;;;0.80;;
75090;SDS011;63674;48.048;8.306;2023-08-06T09:09:12;3.42;;;0.73;;
75090;SDS011;63674;48.048;8.306;2023-08-06T09:11:45;3.15;;;0.60;;
75090;SDS011;63674;48.048;8.306;2023-08-06T09:14:18;2.88;;;0.57;;
75090;SDS011;63674;48.048;8.306;2023-08-06T09:16:47;2.60;;;0.43;;
75090;SDS011;63674;48.048;8.306;2023-08-06T09:19:16;2.50;;;0.40;;
75090;SDS011;63674;48.048;8.306;2023-08-06T09:21:45;3.47;;;0.47;;
75090;SDS011;63674;48.048;8.306;2023-08-06T09:24:15;2.92;;;0.50;;
75090;SDS011;63674;48.048;8.306;2023-08-06T09:26:44;3.10;;;0.60;;
75090;SDS011;63674;48.048;8.306;2023-08-06T09:29:13;2.53;;;0.50;;
75090;SDS011;63674;48.048;8.306;2023-08-06T09:31:44;2.60;;;0.50;;
75090;SDS011;63674;48.048;8.306;2023-08-06T09:34:14;2.67;;;0.40;;
75090;SDS011;63674;48.048;8.306;2023-08-06T09:36:46;3.38;;;0.70;;
75090;SDS011;63674;48.048;8.306;2023-08-06T09:39:17;3.40;;;0.50;;
75090;SDS011;63674;48.048;8.306;2023-08-06T09:41:47;2.30;;;0.33;;
75090;SDS011;63674;48.048;8.306;2023-08-06T09:44:24;2.30;;;0.30;;
75090;SDS011;63674;48.048;8.306;2023-08-06T09:46:57;2.30;;;0.40;;
75090;SDS011;63674;48.048;8.306;2023-08-06T09:49:27;3.80;;;0.82;;
75090;SDS011;63674;48.048;8.306;2023-08-06T09:52:10;3.60;;;0.85;;
75090;SDS011;63674;48.048;8.306;2023-08-06T09:54:42;2.70;;;0.40;;
75090;SDS011;63674;48.048;8.306;2023-08-06T09:57:12;2.15;;;0.30;;
75090;SDS011;63674;48.048;8.306;2023-08-06T09:59:42;2.70;;;0.55;;
75090;SDS011;63674;48.048;8.306;2023-08-06T10:02:15;2.55;;;0.40;;
75090;SDS011;63674;48.048;8.306;2023-08-06T10:04:45;2.75;;;0.40;;
75090;SDS011;63674;48.048;8.306;2023-08-06T10:07:21;2.37;;;0.33;;
75090;SDS011;63674;48.048;8.306;2023-08-06T10:09:51;3.38;;;0.50;;
75090;SDS011;63674;48.048;8.306;2023-08-06T10:12:19;4.75;;;0.77;;
75090;SDS011;63674;48.048;8.306;2023-08-06T10:14:49;3.30;;;0.65;;
75090;SDS011;63674;48.048;8.306;2023-08-06T10:17:20;3.08;;;0.68;;
75090;SDS011;63674;48.048;8.306;2023-08-06T10:20:03;2.97;;;0.67;;
75090;SDS011;63674;48.048;8.306;2023-08-06T10:22:34;2.90;;;0.60;;
75090;SDS011;63674;48.048;8.306;2023-08-06T10:25:02;2.67;;;0.50;;
75090;SDS011;63674;48.048;8.306;2023-08-06T10:27:32;3.08;;;0.50;;
75090;SDS011;63674;48.048;8.306;2023-08-06T10:30:20;2.50;;;0.45;;
75090;SDS011;63674;48.048;8.306;2023-08-06T10:32:52;2.80;;;0.60;;
75090;SDS011;63674;48.048;8.306;2023-08-06T10:35:31;2.53;;;0.45;;
75090;SDS011;63674;48.048;8.306;2023-08-06T10:38:03;2.55;;;0.40;;
75090;SDS011;63674;48.048;8.306;2023-08-06T10:40:35;2.47;;;0.30;;
75090;SDS011;63674;48.048;8.306;2023-08-06T10:43:04;2.50;;;0.50;;
75090;SDS011;63674;48.048;8.306;2023-08-06T10:45:35;2.20;;;0.30;;
75090;SDS011;63674;48.048;8.306;2023-08-06T10:48:06;2.33;;;0.40;;
75090;SDS011;63674;48.048;8.306;2023-08-06T10:50:35;2.33;;;0.35;;
75090;SDS011;63674;48.048;8.306;2023-08-06T10:53:04;3.08;;;0.30;;
75090;SDS011;63674;48.048;8.306;2023-08-06T10:55:33;2.50;;;0.60;;
75090;SDS011;63674;48.048;8.306;2023-08-06T10:58:05;2.73;;;0.50;;
75090;SDS011;63674;48.048;8.306;2023-08-06T11:00:33;2.38;;;0.40;;
75090;SDS011;63674;48.048;8.306;2023-08-06T11:03:03;2.10;;;0.30;;
75090;SDS011;63674;48.048;8.306;2023-08-06T11:05:33;2.38;;;0.40;;
75090;SDS011;63674;48.048;8.306;2023-08-06T11:08:02;2.60;;;0.40;;
75090;SDS011;63674;48.048;8.306;2023-08-06T11:10:32;3.17;;;0.30;;
75090;SDS011;63674;48.048;8.306;2023-08-06T11:13:02;2.10;;;0.30;;
75090;SDS011;63674;48.048;8.306;2023-08-06T11:15:34;2.17;;;0.47;;
75090;SDS011;63674;48.048;8.306;2023-08-06T11:18:03;2.30;;;0.30;;
75090;SDS011;63674;48.048;8.306;2023-08-06T11:20:33;1.95;;;0.30;;
75090;SDS011;63674;48.048;8.306;2023-08-06T11:23:02;2.30;;;0.40;;
75090;SDS011;63674;48.048;8.306;2023-08-06T11:25:31;2.20;;;0.40;;
75090;SDS011;63674;48.048;8.306;2023-08-06T11:28:04;1.95;;;0.40;;
75090;SDS011;63674;48.048;8.306;2023-08-06T11:30:33;3.25;;;0.50;;
75090;SDS011;63674;48.048;8.306;2023-08-06T11:33:02;3.78;;;0.30;;
75090;SDS011;63674;48.048;8.306;2023-08-06T11:35:30;2.50;;;0.30;;
75090;SDS011;63674;48.048;8.306;2023-08-06T11:38:03;2.25;;;0.30;;
75090;SDS011;63674;48.048;8.306;2023-08-06T11:40:32;3.35;;;0.40;;
75090;SDS011;63674;48.048;8.306;2023-08-06T11:43:03;2.35;;;0.30;;
75090;SDS011;63674;48.048;8.306;2023-08-06T11:45:34;2.20;;;0.40;;
75090;SDS011;63674;48.048;8.306;2023-08-06T11:48:04;2.30;;;0.30;;
75090;SDS011;63674;48.048;8.306;2023-08-06T11:50:35;2.03;;;0.38;;
75090;SDS011;63674;48.048;8.306;2023-08-06T11:53:06;2.25;;;0.30;;
75090;SDS011;63674;48.048;8.306;2023-08-06T11:55:35;3.22;;;0.60;;
75090;SDS011;63674;48.048;8.306;2023-08-06T11:58:04;3.38;;;0.68;;
75090;SDS011;63674;48.048;8.306;2023-08-06T12:00:32;2.40;;;0.40;;
75090;SDS011;63674;48.048;8.306;2023-08-06T12:03:01;2.42;;;0.40;;
75090;SDS011;63674;48.048;8.306;2023-08-06T12:05:30;2.53;;;0.40;;
75090;SDS011;63674;48.048;8.306;2023-08-06T12:08:02;2.50;;;0.40;;
75090;SDS011;63674;48.048;8.306;2023-08-06T12:10:31;3.90;;;0.40;;
75090;SDS011;63674;48.048;8.306;2023-08-06T12:13:00;2.20;;;0.30;;
75090;SDS011;63674;48.048;8.306;2023-08-06T12:15:29;2.50;;;0.50;;
75090;SDS011;63674;48.048;8.306;2023-08-06T12:17:59;2.63;;;0.40;;
75090;SDS011;63674;48.048;8.306;2023-08-06T12:20:28;2.47;;;0.40;;
75090;SDS011;63674;48.048;8.306;2023-08-06T12:22:56;2.22;;;0.40;;
75090;SDS011;63674;48.048;8.306;2023-08-06T12:25:26;2.77;;;0.70;;
75090;SDS011;63674;48.048;8.306;2023-08-06T12:27:55;2.60;;;0.30;;
75090;SDS011;63674;48.048;8.306;2023-08-06T12:30:24;4.28;;;0.40;;
75090;SDS011;63674;48.048;8.306;2023-08-06T12:32:53;2.60;;;0.45;;
75090;SDS011;63674;48.048;8.306;2023-08-06T12:35:21;2.90;;;0.43;;
75090;SDS011;63674;48.048;8.306;2023-08-06T12:37:52;2.40;;;0.40;;
75090;SDS011;63674;48.048;8.306;2023-08-06T12:40:21;3.50;;;0.40;;
75090;SDS011;63674;48.048;8.306;2023-08-06T12:43:03;3.58;;;0.50;;
75090;SDS011;63674;48.048;8.306;2023-08-06T12:45:32;2.28;;;0.35;;
75090;SDS011;63674;48.048;8.306;2023-08-06T12:48:01;2.30;;;0.40;;
75090;SDS011;63674;48.048;8.306;2023-08-06T12:50:30;2.40;;;0.40;;
75090;SDS011;63674;48.048;8.306;2023-08-06T12:52:59;2.55;;;0.30;;
75090;SDS011;63674;48.048;8.306;2023-08-06T12:55:28;2.72;;;0.40;;
75090;SDS011;63674;48.048;8.306;2023-08-06T12:57:59;2.55;;;0.40;;
75090;SDS011;63674;48.048;8.306;2023-08-06T13:00:29;2.25;;;0.30;;
75090;SDS011;63674;48.048;8.306;2023-08-06T13:02:57;2.40;;;0.30;;
75090;SDS011;63674;48.048;8.306;2023-08-06T13:05:26;3.25;;;0.70;;
75090;SDS011;63674;48.048;8.306;2023-08-06T13:07:54;2.60;;;0.40;;
75090;SDS011;63674;48.048;8.306;2023-08-06T13:10:23;3.45;;;0.40;;
75090;SDS011;63674;48.048;8.306;2023-08-06T13:12:53;2.60;;;0.50;;
75090;SDS011;63674;48.048;8.306;2023-08-06T13:15:22;2.40;;;0.30;;
75090;SDS011;63674;48.048;8.306;2023-08-06T13:17:52;2.55;;;0.40;;
75090;SDS011;63674;48.048;8.306;2023-08-06T13:20:21;3.28;;;0.50;;
75090;SDS011;63674;48.048;8.306;2023-08-06T13:22:49;2.60;;;0.40;;
75090;SDS011;63674;48.048;8.306;2023-08-06T13:25:20;2.60;;;0.50;;
75090;SDS011;63674;48.048;8.306;2023-08-06T13:27:50;2.50;;;0.47;;
75090;SDS011;63674;48.048;8.306;2023-08-06T13:30:18;3.55;;;0.50;;
75090;SDS011;63674;48.048;8.306;2023-08-06T13:32:47;2.38;;;0.30;;
75090;SDS011;63674;48.048;8.306;2023-08-06T13:35:17;3.00;;;0.55;;
75090;SDS011;63674;48.048;8.306;2023-08-06T13:37:45;2.90;;;0.50;;
75090;SDS011;63674;48.048;8.306;2023-08-06T13:40:14;2.77;;;0.50;;
75090;SDS011;63674;48.048;8.306;2023-08-06T13:42:43;2.80;;;0.50;;
75090;SDS011;63674;48.048;8.306;2023-08-06T13:45:12;2.80;;;0.60;;
75090;SDS011;63674;48.048;8.306;2023-08-06T13:47:40;2.95;;;0.90;;
75090;SDS011;63674;48.048;8.306;2023-08-06T13:50:10;3.15;;;0.60;;
75090;SDS011;63674;48.048;8.306;2023-08-06T13:52:40;3.10;;;0.70;;
75090;SDS011;63674;48.048;8.306;2023-08-06T13:55:09;4.25;;;0.57;;
75090;SDS011;63674;48.048;8.306;2023-08-06T13:57:38;2.90;;;0.75;;
75090;SDS011;63674;48.048;8.306;2023-08-06T14:00:06;3.10;;;0.60;;
75090;SDS011;63674;48.048;8.306;2023-08-06T14:02:37;3.10;;;0.50;;
75090;SDS011;63674;48.048;8.306;2023-08-06T14:05:06;3.07;;;0.70;;
75090;SDS011;63674;48.048;8.306;2023-08-06T14:07:35;2.97;;;0.68;;
75090;SDS011;63674;48.048;8.306;2023-08-06T14:10:05;3.17;;;0.80;;
75090;SDS011;63674;48.048;8.306;2023-08-06T14:12:35;4.05;;;0.70;;
75090;SDS011;63674;48.048;8.306;2023-08-06T14:15:04;2.90;;;0.60;;
75090;SDS011;63674;48.048;8.306;2023-08-06T14:17:34;3.47;;;0.73;;
75090;SDS011;63674;48.048;8.306;2023-08-06T14:20:03;3.60;;;0.80;;
75090;SDS011;63674;48.048;8.306;2023-08-06T14:22:34;3.58;;;0.77;;
75090;SDS011;63674;48.048;8.306;2023-08-06T14:25:05;3.53;;;0.90;;
75090;SDS011;63674;48.048;8.306;2023-08-06T14:27:34;3.20;;;0.82;;
75090;SDS011;63674;48.048;8.306;2023-08-06T14:30:05;3.80;;;0.90;;
75090;SDS011;63674;48.048;8.306;2023-08-06T14:32:35;3.40;;;0.80;;
75090;SDS011;63674;48.048;8.306;2023-08-06T14:35:04;3.10;;;0.70;;
75090;SDS011;63674;48.048;8.306;2023-08-06T14:37:33;3.05;;;0.70;;
75090;SDS011;63674;48.048;8.306;2023-08-06T14:40:02;3.50;;;0.68;;
75090;SDS011;63674;48.048;8.306;2023-08-06T14:42:33;4.50;;;0.90;;
75090;SDS011;63674;48.048;8.306;2023-08-06T14:45:02;4.38;;;0.80;;
75090;SDS011;63674;48.048;8.306;2023-08-06T14:47:32;4.32;;;0.82;;
75090;SDS011;63674;48.048;8.306;2023-08-06T14:50:02;3.10;;;0.70;;
75090;SDS011;63674;48.048;8.306;2023-08-06T14:52:31;4.25;;;1.20;;
75090;SDS011;63674;48.048;8.306;2023-08-06T14:55:00;3.27;;;0.77;;
75090;SDS011;63674;48.048;8.306;2023-08-06T14:57:31;4.70;;;1.65;;
75090;SDS011;63674;48.048;8.306;2023-08-06T15:00:00;5.85;;;1.65;;
75090;SDS011;63674;48.048;8.306;2023-08-06T15:02:29;3.72;;;0.80;;